createdAt,value
2023-04-12T00:01:18.652Z,99132.66
2023-04-12T00:05:27.530Z,99126.03
2023-04-12T00:09:32.726Z,99116.66
2023-04-12T00:13:36.058Z,99130.03
2023-04-12T00:17:41.517Z,99122.56
2023-04-12T00:21:46.319Z,99110.28
2023-04-12T00:25:49.767Z,99115.09
2023-04-12T00:29:53.161Z,99120.84
2023-04-12T00:33:56.425Z,99127.25
2023-04-12T00:38:03.161Z,99124.84
2023-04-12T00:42:08.665Z,99124.09
2023-04-12T00:46:13.097Z,99124.84
2023-04-12T00:50:19.702Z,99132.00
2023-04-12T00:54:28.402Z,99132.91
2023-04-12T00:58:32.095Z,99124.97
2023-04-12T01:02:35.957Z,99122.41
2023-04-12T01:06:49.002Z,99124.97
2023-04-12T01:11:02.637Z,99116.44
2023-04-12T01:15:10.301Z,99118.22
2023-04-12T01:19:35.532Z,99120.84
2023-04-12T01:23:56.861Z,99125.47
2023-04-12T01:28:06.256Z,99123.69
2023-04-12T01:32:13.506Z,99126.41
2023-04-12T01:36:24.199Z,99114.31
2023-04-12T01:40:29.150Z,99115.91
2023-04-12T01:44:33.568Z,99127.25
2023-04-12T01:48:37.007Z,99119.38
2023-04-12T01:52:51.722Z,99115.19
2023-04-12T01:56:59.517Z,99112.72
2023-04-12T02:01:07.270Z,99105.81
2023-04-12T02:05:11.755Z,99095.41
2023-04-12T02:09:14.710Z,99099.09
2023-04-12T02:13:18.420Z,99100.03
2023-04-12T02:17:22.741Z,99099.28
2023-04-12T02:21:26.468Z,99115.69
2023-04-12T02:25:29.440Z,99101.72
2023-04-12T02:29:32.506Z,99091.31
2023-04-12T02:33:37.244Z,99096.66
2023-04-12T02:37:41.422Z,99101.16
2023-04-12T02:41:44.851Z,99109.88
2023-04-12T02:45:48.752Z,99108.09
2023-04-12T02:49:53.361Z,99115.84
2023-04-12T02:53:56.987Z,99104.53
2023-04-12T02:58:02.226Z,99102.66
2023-04-12T03:03:06.926Z,99106.13
2023-04-12T03:07:11.622Z,99096.25
2023-04-12T03:11:16.646Z,99099.81
2023-04-12T03:15:19.914Z,99114.63
2023-04-12T03:19:22.475Z,99117.25
2023-04-12T03:23:27.071Z,99121.56
2023-04-12T03:27:30.486Z,99127.63
2023-04-12T03:31:33.569Z,99124.19
2023-04-12T03:35:36.996Z,99120.81
2023-04-12T03:39:41.570Z,99125.13
2023-04-12T03:43:44.777Z,99121.56
2023-04-12T03:47:47.872Z,99113.56
2023-04-12T03:51:52.584Z,99125.75
2023-04-12T03:55:57.010Z,99127.44
2023-04-12T03:59:59.975Z,99134.47
2023-04-12T04:04:03.497Z,99131.00
2023-04-12T04:08:07.840Z,99126.59
2023-04-12T04:12:11.963Z,99125.47
2023-04-12T04:16:15.058Z,99126.41
2023-04-12T04:20:18.255Z,99119.38
2023-04-12T04:24:22.583Z,99127.97
2023-04-12T04:28:28.038Z,99136.47
2023-04-12T04:32:31.818Z,99139.88
2023-04-12T04:36:38.551Z,99136.38
2023-04-12T04:40:41.533Z,99140.38
2023-04-12T04:44:45.965Z,99142.06
2023-04-12T04:48:55.342Z,99143.66
2023-04-12T04:52:58.265Z,99141.69
2023-04-12T04:57:03.253Z,99140.19
2023-04-12T05:01:08.136Z,99140.66
2023-04-12T05:05:12.733Z,99145.38
2023-04-12T05:09:16.124Z,99139.06
2023-04-12T05:13:19.478Z,99138.63
2023-04-12T05:17:23.417Z,99152.94
2023-04-12T05:21:26.747Z,99156.81
2023-04-12T05:25:29.815Z,99160.84
2023-04-12T05:29:32.702Z,99166.72
2023-04-12T05:33:38.102Z,99168.50
2023-04-12T05:37:42.946Z,99174.41
2023-04-12T05:41:45.861Z,99179.66
2023-04-12T05:45:48.943Z,99181.66
2023-04-12T05:49:56.501Z,99176.41
2023-04-12T05:53:59.438Z,99171.84
2023-04-12T05:58:02.523Z,99173.53
2023-04-12T06:02:05.230Z,99174.28
2023-04-12T06:06:10.294Z,99174.41
2023-04-12T06:10:17.662Z,99180.06
2023-04-12T06:14:23.245Z,99180.47
2023-04-12T06:18:28.732Z,99166.69
2023-04-12T06:22:34.868Z,99167.63
2023-04-12T06:26:40.228Z,99164.25
2023-04-12T06:30:44.900Z,99162.13
2023-04-12T06:34:47.565Z,99162.00
2023-04-12T06:38:54.684Z,99163.91
2023-04-12T06:42:58.044Z,99166.63
2023-04-12T06:47:01.075Z,99157.97
2023-04-12T06:51:09.252Z,99153.88
2023-04-12T06:55:13.335Z,99160.38
2023-04-12T06:59:16.355Z,99163.81
2023-04-12T07:03:19.577Z,99168.53
2023-04-12T07:07:22.622Z,99166.41
2023-04-12T07:11:32.073Z,99177.50
2023-04-12T07:15:35.345Z,99173.19
2023-04-12T07:19:38.258Z,99168.75
2023-04-12T07:23:43.802Z,99175.91
2023-04-12T07:27:51.597Z,99178.38
2023-04-12T07:31:54.921Z,99179.25
2023-04-12T07:36:01.272Z,99174.75
2023-04-12T07:40:07.104Z,99167.94
2023-04-12T07:44:11.563Z,99165.63
2023-04-12T07:48:14.775Z,99181.72
2023-04-12T07:52:17.568Z,99168.63
2023-04-12T07:56:20.622Z,99168.69
2023-04-12T08:00:28.905Z,99176.09
2023-04-12T08:04:31.729Z,99175.28
2023-04-12T08:08:34.322Z,99174.91
2023-04-12T08:12:37.649Z,99171.94
2023-04-12T08:16:44.500Z,99179.81
2023-04-12T08:20:52.307Z,99177.81
2023-04-12T08:24:55.117Z,99174.25
2023-04-12T08:28:59.746Z,99174.69
2023-04-12T08:33:04.563Z,99169.59
2023-04-12T08:37:07.082Z,99179.06
2023-04-12T08:41:09.736Z,99184.59
2023-04-12T08:45:14.088Z,99185.22
2023-04-12T08:49:20.608Z,99194.19
2023-04-12T08:53:23.925Z,99191.56
2023-04-12T08:57:27.391Z,99188.56
2023-04-12T09:01:29.913Z,99183.88
2023-04-12T09:05:34.225Z,99170.91
2023-04-12T09:09:46.624Z,99165.75
2023-04-12T09:13:52.803Z,99167.03
2023-04-12T09:18:08.898Z,99167.69
2023-04-12T09:22:13.301Z,99166.03
2023-04-12T09:26:29.757Z,99157.28
2023-04-12T09:30:42.997Z,99150.06
2023-04-12T09:34:56.941Z,99143.22
2023-04-12T09:39:02.425Z,99132.22
2023-04-12T09:43:05.508Z,99137.75
2023-04-12T09:47:08.953Z,99143.00
2023-04-12T09:51:14.092Z,99138.16
2023-04-12T09:55:22.378Z,99145.63
2023-04-12T09:59:30.902Z,99143.53
2023-04-12T10:03:35.398Z,99150.44
2023-04-12T10:07:41.593Z,99153.28
2023-04-12T10:11:50.435Z,99148.56
2023-04-12T10:15:55.110Z,99145.38
2023-04-12T10:19:58.473Z,99151.09
2023-04-12T10:24:06.693Z,99150.53
2023-04-12T10:28:23.243Z,99148.00
2023-04-12T10:32:26.944Z,99153.88
2023-04-12T10:36:55.396Z,99147.78
2023-04-12T10:41:18.055Z,99152.56
2023-04-12T10:45:41.582Z,99142.97
2023-04-12T10:50:22.118Z,99151.75
2023-04-12T10:54:36.976Z,99147.75
2023-04-12T10:59:04.690Z,99146.22
2023-04-12T11:03:13.103Z,99136.97
2023-04-12T11:07:16.516Z,99142.16
2023-04-12T11:11:22.982Z,99139.66
2023-04-12T11:15:31.283Z,99137.44
2023-04-12T11:19:38.296Z,99134.50
2023-04-12T11:23:44.868Z,99134.09
2023-04-12T11:27:51.977Z,99132.03
2023-04-12T11:31:56.363Z,99130.91
2023-04-12T11:36:01.261Z,99128.66
2023-04-12T11:40:08.155Z,99129.91
2023-04-12T11:44:11.589Z,99121.78
2023-04-12T11:48:15.097Z,99122.75
2023-04-12T11:52:27.094Z,99115.97
2023-04-12T11:56:32.039Z,99122.38
2023-04-12T12:00:35.262Z,99112.88
2023-04-12T12:04:38.347Z,99107.63
2023-04-12T12:08:43.141Z,99105.69
2023-04-12T12:12:48.310Z,99102.72
2023-04-12T12:16:55.602Z,99098.56
2023-04-12T12:20:58.600Z,99091.19
2023-04-12T12:25:03.163Z,99084.28
2023-04-12T12:29:12.250Z,99068.00
2023-04-12T12:33:24.824Z,99079.16
2023-04-12T12:37:35.088Z,99074.09
2023-04-12T12:41:42.717Z,99059.88
2023-04-12T12:45:46.155Z,99055.13
2023-04-12T12:49:49.442Z,99048.22
2023-04-12T12:53:59.341Z,99044.72
2023-04-12T12:58:08.033Z,99035.84
2023-04-12T13:02:11.585Z,99031.72
2023-04-12T13:06:14.993Z,99024.31
2023-04-12T13:10:19.542Z,99019.72
2023-04-12T13:14:23.778Z,99008.38
2023-04-12T13:18:28.140Z,99012.19
2023-04-12T13:22:32.079Z,99015.56
2023-04-12T13:26:35.252Z,99005.56
2023-04-12T13:30:40.365Z,99001.81
2023-04-12T13:34:43.311Z,98994.69
2023-04-12T13:38:46.149Z,99003.38
2023-04-12T13:42:49.094Z,98995.41
2023-04-12T13:46:52.783Z,98993.91
2023-04-12T13:50:55.981Z,98994.63
2023-04-12T13:54:59.805Z,98987.53
2023-04-12T13:59:03.872Z,98988.06
2023-04-12T14:03:08.965Z,98990.25
2023-04-12T14:07:15.178Z,98983.41
2023-04-12T14:11:18.604Z,99000.25
2023-04-12T14:15:21.936Z,98981.63
2023-04-12T14:19:28.391Z,98990.84
2023-04-12T14:23:31.318Z,98994.88
2023-04-12T14:27:35.639Z,98984.88
2023-04-12T14:31:39.578Z,98993.00
2023-04-12T14:35:44.416Z,98991.63
2023-04-12T14:39:47.478Z,98994.22
2023-04-12T14:43:54.121Z,98997.63
2023-04-12T14:47:57.565Z,98999.84
2023-04-12T14:52:02.412Z,98993.16
2023-04-12T14:56:19.121Z,98993.41
2023-04-12T15:00:23.509Z,98991.31
2023-04-12T15:04:26.818Z,98993.31
2023-04-12T15:08:34.869Z,98985.59
2023-04-12T15:12:42.952Z,98995.69
2023-04-12T15:16:46.962Z,98994.59
2023-04-12T15:20:53.405Z,98984.00
2023-04-12T15:24:58.306Z,98992.66
2023-04-12T15:29:01.274Z,98994.78
2023-04-12T15:33:05.694Z,98993.25
2023-04-12T15:37:08.962Z,98982.53
2023-04-12T15:41:13.894Z,98982.25
2023-04-12T15:45:17.280Z,98986.94
2023-04-12T15:49:20.106Z,98986.09
2023-04-12T15:53:25.909Z,98979.00
2023-04-12T15:57:31.586Z,98986.78
2023-04-12T16:01:35.884Z,98980.19
2023-04-12T16:05:38.931Z,98981.59
2023-04-12T16:09:42.542Z,98974.06
2023-04-12T16:13:48.755Z,98978.91
2023-04-12T16:17:53.535Z,98983.78
2023-04-12T16:21:56.748Z,98979.19
2023-04-12T16:26:02.814Z,98981.34
2023-04-12T16:30:10.797Z,98978.81
2023-04-12T16:34:13.824Z,98981.38
2023-04-12T16:38:17.893Z,98982.25
2023-04-12T16:42:22.399Z,98984.28
2023-04-12T16:46:27.674Z,98989.91
2023-04-12T16:50:33.155Z,99000.19
2023-04-12T16:54:36.317Z,98999.50
2023-04-12T16:58:40.978Z,99003.06
2023-04-12T17:02:45.624Z,99010.44
2023-04-12T17:06:49.087Z,99000.75
2023-04-12T17:10:51.850Z,99003.53
2023-04-12T17:14:56.614Z,99007.28
2023-04-12T17:19:00.848Z,99008.50
2023-04-12T17:23:05.070Z,98997.84
2023-04-12T17:27:08.018Z,98998.72
2023-04-12T17:31:13.486Z,98997.50
2023-04-12T17:35:22.464Z,99006.09
2023-04-12T17:39:25.480Z,99006.81
2023-04-12T17:43:30.487Z,99001.63
2023-04-12T17:47:34.683Z,99005.50
2023-04-12T17:51:39.467Z,99003.03
2023-04-12T17:55:43.424Z,99007.34
2023-04-12T17:59:46.969Z,99007.16
2023-04-12T18:03:55.205Z,99002.47
2023-04-12T18:07:59.879Z,99002.84
2023-04-12T18:12:06.448Z,98998.06
2023-04-12T18:16:09.767Z,98990.19
2023-04-12T18:20:14.291Z,98993.88
2023-04-12T18:24:19.641Z,98995.22
2023-04-12T18:28:23.237Z,98998.78
2023-04-12T18:32:29.427Z,99000.50
2023-04-12T18:36:33.048Z,98993.47
2023-04-12T18:40:39.350Z,98994.00
2023-04-12T18:44:43.839Z,98979.78
2023-04-12T18:48:48.252Z,98975.63
2023-04-12T18:52:51.479Z,98979.06
2023-04-12T18:56:58.146Z,98983.53
2023-04-12T19:01:01.149Z,98975.78
2023-04-12T19:05:05.662Z,98973.88
2023-04-12T19:09:09.465Z,98968.53
2023-04-12T19:13:14.080Z,98966.28
2023-04-12T19:17:17.373Z,98966.38
2023-04-12T19:21:20.862Z,98963.34
2023-04-12T19:25:31.558Z,98964.94
2023-04-12T19:29:36.428Z,98957.34
2023-04-12T19:33:41.726Z,98949.47
2023-04-12T19:37:44.890Z,98952.94
2023-04-12T19:41:49.630Z,98947.63
2023-04-12T19:45:58.764Z,98956.50
2023-04-12T19:50:01.842Z,98954.91
2023-04-12T19:54:10.133Z,98949.31
2023-04-12T19:58:14.071Z,98942.94
2023-04-12T20:02:18.480Z,98942.75
2023-04-12T20:06:21.859Z,98941.91
2023-04-12T20:10:24.889Z,98937.13
2023-04-12T20:14:27.703Z,98936.63
2023-04-12T20:18:34.807Z,98932.69
2023-04-12T20:22:41.064Z,98930.41
2023-04-12T20:26:50.630Z,98931.91
2023-04-12T20:30:53.970Z,98929.41
2023-04-12T20:35:00.676Z,98931.66
2023-04-12T20:39:05.881Z,98930.16
2023-04-12T20:43:10.697Z,98927.00
2023-04-12T20:47:14.035Z,98930.44
2023-04-12T20:51:21.030Z,98936.47
2023-04-12T20:55:25.337Z,98935.03
2023-04-12T20:59:29.768Z,98939.78
2023-04-12T21:03:33.701Z,98934.75
2023-04-12T21:07:41.717Z,98947.09
2023-04-12T21:11:45.498Z,98944.94
2023-04-12T21:15:49.027Z,98938.38
2023-04-12T21:19:52.580Z,98932.69
2023-04-12T21:23:58.253Z,98932.00
2023-04-12T21:28:01.554Z,98919.91
2023-04-12T21:32:06.982Z,98917.44
2023-04-12T21:36:10.624Z,98923.50
2023-04-12T21:40:18.635Z,98914.00
2023-04-12T21:44:25.744Z,98918.53
2023-04-12T21:48:30.775Z,98920.66
2023-04-12T21:52:33.578Z,98919.22
2023-04-12T21:56:41.964Z,98925.88
2023-04-12T22:00:51.801Z,98920.59
2023-04-12T22:04:57.228Z,98919.41
2023-04-12T22:09:08.096Z,98919.03
2023-04-12T22:13:25.133Z,98919.41
2023-04-12T22:17:30.860Z,98915.25
2023-04-12T22:21:39.162Z,98911.94
2023-04-12T22:25:44.512Z,98901.00
2023-04-12T22:29:50.003Z,98908.72
2023-04-12T22:33:55.751Z,98896.75
2023-04-12T22:38:03.143Z,98887.72
2023-04-12T22:42:09.216Z,98885.88
2023-04-12T22:46:16.298Z,98877.72
2023-04-12T22:50:19.854Z,98872.38
2023-04-12T22:54:23.273Z,98866.34
2023-04-12T22:58:29.264Z,98864.16
2023-04-12T23:02:33.864Z,98862.06
2023-04-12T23:06:40.605Z,98862.72
2023-04-12T23:10:43.524Z,98858.47
2023-04-12T23:14:46.803Z,98854.69
2023-04-12T23:18:51.374Z,98852.34
2023-04-12T23:22:58.439Z,98840.66
2023-04-12T23:27:03.195Z,98842.84
2023-04-12T23:31:09.164Z,98830.22
2023-04-12T23:35:14.672Z,98835.56
2023-04-12T23:39:18.350Z,98827.69
2023-04-12T23:43:21.968Z,98827.47
2023-04-12T23:47:24.884Z,98824.31
2023-04-12T23:51:29.732Z,98808.84
2023-04-12T23:55:33.109Z,98808.63
2023-04-12T23:59:36.748Z,98799.50
